createdAt,value
2023-05-21T00:00:12.223Z,13.40
2023-05-21T00:02:41.123Z,13.50
2023-05-21T00:05:14.485Z,13.50
2023-05-21T00:07:47.938Z,13.40
2023-05-21T00:10:25.251Z,13.30
2023-05-21T00:12:59.783Z,13.40
2023-05-21T00:15:42.307Z,13.40
2023-05-21T00:18:13.770Z,13.40
2023-05-21T00:20:47.467Z,13.30
2023-05-21T00:26:10.002Z,13.10
2023-05-21T00:28:49.964Z,13.00
2023-05-21T00:34:22.155Z,13.00
2023-05-21T00:36:57.396Z,13.00
2023-05-21T00:39:28.144Z,13.00
2023-05-21T00:42:03.837Z,13.00
2023-05-21T00:44:38.161Z,13.00
2023-05-21T00:47:14.206Z,12.90
2023-05-21T00:49:52.546Z,13.00
2023-05-21T00:52:23.915Z,13.00
2023-05-21T00:54:53.313Z,13.00
2023-05-21T00:57:33.938Z,13.00
2023-05-21T01:00:03.082Z,12.90
2023-05-21T01:02:35.736Z,12.90
2023-05-21T01:05:09.702Z,12.90
2023-05-21T01:07:41.807Z,12.80
2023-05-21T01:10:16.090Z,12.80
2023-05-21T01:12:51.556Z,12.80
2023-05-21T01:15:21.134Z,12.80
2023-05-21T01:17:59.542Z,12.80
2023-05-21T01:20:42.535Z,12.80
2023-05-21T01:23:26.851Z,12.80
2023-05-21T01:25:56.058Z,12.80
2023-05-21T01:28:34.696Z,12.80
2023-05-21T01:31:26.758Z,12.80
2023-05-21T01:34:00.705Z,12.80
2023-05-21T01:36:38.227Z,12.70
2023-05-21T01:39:19.081Z,12.80
2023-05-21T01:41:51.012Z,12.80
2023-05-21T01:44:21.064Z,12.80
2023-05-21T01:46:51.941Z,12.80
2023-05-21T01:49:23.568Z,12.80
2023-05-21T01:51:53.859Z,12.70
2023-05-21T01:54:24.964Z,12.70
2023-05-21T01:56:53.479Z,12.70
2023-05-21T01:59:21.951Z,12.70
2023-05-21T02:01:50.065Z,12.70
2023-05-21T02:04:18.172Z,12.60
2023-05-21T02:06:51.139Z,12.60
2023-05-21T02:09:19.729Z,12.60
2023-05-21T02:11:49.415Z,12.60
2023-05-21T02:14:17.633Z,12.50
2023-05-21T02:16:48.316Z,12.50
2023-05-21T02:19:18.263Z,12.40
2023-05-21T02:21:46.792Z,12.50
2023-05-21T02:24:15.469Z,12.40
2023-05-21T02:26:43.683Z,12.50
2023-05-21T02:29:13.596Z,12.50
2023-05-21T02:31:41.821Z,12.40
2023-05-21T02:34:13.995Z,12.40
2023-05-21T02:36:47.082Z,12.40
2023-05-21T02:39:15.687Z,12.40
2023-05-21T02:41:44.153Z,12.30
2023-05-21T02:46:56.176Z,12.30
2023-05-21T02:49:24.251Z,12.30
2023-05-21T02:51:53.425Z,12.20
2023-05-21T02:54:22.388Z,12.30
2023-05-21T02:56:50.577Z,12.30
2023-05-21T02:59:20.028Z,12.30
2023-05-21T03:01:53.433Z,12.30
2023-05-21T03:04:31.721Z,12.40
2023-05-21T03:07:02.261Z,12.40
2023-05-21T03:09:39.278Z,12.40
2023-05-21T03:12:38.212Z,12.40
2023-05-21T03:15:17.299Z,12.30
2023-05-21T03:17:50.509Z,12.30
2023-05-21T03:20:19.693Z,12.30
2023-05-21T03:22:50.688Z,12.20
2023-05-21T03:25:19.175Z,12.20
2023-05-21T03:27:51.587Z,12.20
2023-05-21T03:30:24.448Z,12.20
2023-05-21T03:36:07.233Z,12.20
2023-05-21T03:39:06.913Z,12.10
2023-05-21T03:44:47.639Z,12.10
2023-05-21T03:47:21.836Z,12.10
2023-05-21T03:49:50.198Z,12.10
2023-05-21T03:52:18.381Z,12.10
2023-05-21T03:54:49.962Z,12.20
2023-05-21T03:57:18.031Z,12.20
2023-05-21T03:59:46.756Z,12.20
2023-05-21T04:02:21.434Z,12.20
2023-05-21T04:04:51.723Z,12.30
2023-05-21T04:07:20.890Z,12.30
2023-05-21T04:09:49.051Z,12.30
2023-05-21T04:12:20.178Z,12.40
2023-05-21T04:14:49.611Z,12.30
2023-05-21T04:17:28.842Z,12.40
2023-05-21T04:19:57.121Z,12.30
2023-05-21T04:22:26.630Z,12.30
2023-05-21T04:24:55.132Z,12.40
2023-05-21T04:30:01.235Z,12.50
2023-05-21T04:32:32.802Z,12.60
2023-05-21T04:35:02.807Z,12.60
2023-05-21T04:37:35.301Z,12.70
2023-05-21T04:40:06.741Z,12.80
2023-05-21T04:42:36.158Z,12.90
2023-05-21T04:45:06.960Z,12.90
2023-05-21T04:47:37.849Z,13.00
2023-05-21T04:50:11.485Z,12.90
2023-05-21T04:52:43.080Z,12.90
2023-05-21T04:55:11.400Z,12.90
2023-05-21T04:57:42.917Z,12.90
2023-05-21T05:00:12.560Z,13.00
2023-05-21T05:02:42.764Z,13.00
2023-05-21T05:05:14.487Z,13.00
2023-05-21T05:07:43.859Z,13.10
2023-05-21T05:10:14.480Z,13.10
2023-05-21T05:12:44.762Z,13.10
2023-05-21T05:15:13.170Z,13.20
2023-05-21T05:17:48.437Z,13.30
2023-05-21T05:20:16.711Z,13.40
2023-05-21T05:22:49.713Z,13.40
2023-05-21T05:25:19.571Z,13.50
2023-05-21T05:27:47.767Z,13.60
2023-05-21T05:30:16.433Z,13.60
2023-05-21T05:32:46.776Z,13.60
2023-05-21T05:35:14.994Z,13.50
2023-05-21T05:37:44.483Z,13.70
2023-05-21T05:40:13.006Z,13.80
2023-05-21T05:42:42.593Z,13.80
2023-05-21T05:54:43.323Z,14.20
2023-05-21T05:57:11.476Z,14.30
2023-05-21T05:59:41.078Z,14.50
2023-05-21T06:02:09.239Z,14.50
2023-05-21T06:04:39.810Z,14.70
2023-05-21T06:07:08.156Z,14.80
2023-05-21T06:09:36.544Z,14.80
2023-05-21T06:12:05.546Z,15.00
2023-05-21T06:14:36.010Z,15.10
2023-05-21T06:17:04.066Z,15.30
2023-05-21T06:19:33.893Z,15.40
2023-05-21T06:22:04.788Z,15.50
2023-05-21T06:24:32.916Z,15.60
2023-05-21T06:27:02.142Z,15.60
2023-05-21T06:31:59.372Z,15.80
2023-05-21T06:34:28.746Z,15.90
2023-05-21T06:36:58.051Z,15.80
2023-05-21T06:39:29.845Z,16.10
2023-05-21T06:41:59.016Z,16.30
2023-05-21T06:44:27.115Z,16.10
2023-05-21T06:47:07.438Z,16.30
2023-05-21T06:50:12.862Z,16.50
2023-05-21T06:52:41.392Z,16.50
2023-05-21T06:55:15.165Z,16.70
2023-05-21T06:57:44.388Z,17.70
2023-05-21T07:00:17.447Z,18.50
2023-05-21T07:02:48.654Z,18.10
2023-05-21T07:05:16.995Z,17.60
2023-05-21T07:07:46.923Z,18.00
2023-05-21T07:10:17.724Z,19.20
2023-05-21T07:12:46.847Z,19.70
2023-05-21T07:15:18.696Z,19.40
2023-05-21T07:17:47.429Z,19.80
2023-05-21T07:20:19.506Z,19.50
2023-05-21T07:22:50.588Z,21.00
2023-05-21T07:25:23.348Z,21.70
2023-05-21T07:27:55.313Z,22.40
2023-05-21T07:30:23.557Z,23.00
2023-05-21T07:32:51.814Z,22.70
2023-05-21T07:35:21.131Z,23.00
2023-05-21T07:37:52.581Z,24.50
2023-05-21T07:40:27.959Z,25.10
2023-05-21T07:42:59.310Z,25.20
2023-05-21T07:45:27.906Z,24.60
2023-05-21T07:47:56.843Z,23.70
2023-05-21T07:50:27.799Z,23.50
2023-05-21T07:52:57.546Z,23.70
2023-05-21T07:55:29.615Z,25.00
2023-05-21T07:57:59.921Z,26.10
2023-05-21T08:00:45.191Z,25.60
2023-05-21T08:03:17.655Z,25.60
2023-05-21T08:05:48.658Z,25.10
2023-05-21T08:08:17.932Z,25.40
2023-05-21T08:10:52.518Z,26.40
2023-05-21T08:13:26.230Z,26.30
2023-05-21T08:15:59.164Z,25.90
2023-05-21T08:18:33.655Z,26.60
2023-05-21T08:21:02.040Z,28.20
2023-05-21T08:23:34.064Z,28.00
2023-05-21T08:26:07.127Z,27.30
2023-05-21T08:28:42.483Z,26.80
2023-05-21T08:31:12.603Z,26.50
2023-05-21T08:33:41.039Z,26.90
2023-05-21T08:36:11.382Z,26.30
2023-05-21T08:38:54.321Z,26.30
2023-05-21T08:41:27.306Z,26.60
2023-05-21T08:46:46.694Z,27.20
2023-05-21T08:49:38.015Z,27.10
2023-05-21T08:52:07.801Z,26.60
2023-05-21T08:54:44.026Z,27.70
2023-05-21T08:57:30.341Z,27.90
2023-05-21T09:00:02.833Z,28.10
2023-05-21T09:02:48.416Z,28.40
2023-05-21T09:05:41.084Z,28.10
2023-05-21T09:08:25.449Z,28.70
2023-05-21T09:11:08.880Z,26.30
2023-05-21T09:14:03.163Z,25.30
2023-05-21T09:16:37.865Z,24.40
2023-05-21T09:19:07.534Z,26.20
2023-05-21T09:21:39.274Z,26.90
2023-05-21T09:24:12.563Z,25.60
2023-05-21T09:26:45.647Z,27.30
2023-05-21T09:29:22.167Z,25.30
2023-05-21T09:31:57.540Z,25.50
2023-05-21T09:34:36.021Z,25.50
2023-05-21T09:37:16.455Z,25.70
2023-05-21T09:39:58.157Z,24.20
2023-05-21T09:42:30.909Z,23.90
2023-05-21T09:45:15.282Z,23.60
2023-05-21T09:47:44.713Z,24.20
2023-05-21T09:50:17.821Z,23.90
2023-05-21T09:53:01.586Z,24.00
2023-05-21T09:55:31.410Z,24.00
2023-05-21T09:58:06.332Z,24.00
2023-05-21T10:01:19.712Z,23.60
2023-05-21T10:03:57.821Z,23.60
2023-05-21T10:06:28.204Z,23.90
2023-05-21T10:09:06.502Z,24.00
2023-05-21T10:11:37.513Z,24.40
2023-05-21T10:14:10.412Z,24.30
2023-05-21T10:17:20.707Z,24.00
2023-05-21T10:19:55.573Z,23.90
2023-05-21T10:22:26.840Z,23.70
2023-05-21T10:25:06.512Z,23.60
2023-05-21T10:28:03.926Z,23.90
2023-05-21T10:30:47.165Z,23.50
2023-05-21T10:33:22.511Z,23.50
2023-05-21T10:35:55.573Z,23.50
2023-05-21T10:38:23.985Z,23.40
2023-05-21T10:40:56.701Z,23.60
2023-05-21T10:43:58.937Z,24.30
2023-05-21T10:47:19.093Z,24.60
2023-05-21T10:50:19.948Z,23.50
2023-05-21T10:53:11.423Z,23.70
2023-05-21T10:56:25.003Z,23.60
2023-05-21T10:59:18.804Z,23.80
2023-05-21T11:05:04.955Z,23.60
2023-05-21T11:08:26.851Z,23.60
2023-05-21T11:11:02.239Z,24.10
2023-05-21T11:13:49.252Z,24.40
2023-05-21T11:16:22.537Z,24.40
2023-05-21T11:19:19.053Z,24.20
2023-05-21T11:22:00.287Z,23.80
2023-05-21T11:24:34.770Z,24.40
2023-05-21T11:27:14.397Z,24.70
2023-05-21T11:30:09.555Z,24.60
2023-05-21T11:32:41.204Z,25.20
2023-05-21T11:35:23.967Z,25.20
2023-05-21T11:37:55.842Z,25.30
2023-05-21T11:40:43.558Z,24.60
2023-05-21T11:43:15.473Z,24.60
2023-05-21T11:45:50.382Z,24.70
2023-05-21T11:48:20.160Z,25.00
2023-05-21T11:50:54.330Z,24.40
2023-05-21T11:53:26.470Z,24.40
2023-05-21T11:56:20.999Z,24.80
2023-05-21T11:58:58.531Z,24.70
2023-05-21T12:01:26.736Z,24.60
2023-05-21T12:03:55.633Z,24.70
2023-05-21T12:06:28.179Z,24.70
2023-05-21T12:08:59.187Z,24.80
2023-05-21T12:11:31.890Z,24.80
2023-05-21T12:14:03.690Z,25.00
2023-05-21T12:18:59.928Z,25.70
2023-05-21T12:21:50.422Z,25.60
2023-05-21T12:33:32.985Z,25.30
2023-05-21T12:36:04.059Z,25.30
2023-05-21T12:38:32.447Z,25.30
2023-05-21T12:41:10.726Z,25.60
2023-05-21T12:43:40.390Z,25.70
2023-05-21T12:46:08.563Z,25.60
2023-05-21T12:48:43.879Z,25.20
2023-05-21T13:06:15.055Z,25.00
2023-05-21T13:08:48.791Z,25.50
2023-05-21T13:11:22.199Z,25.30
2023-05-21T13:13:51.660Z,24.90
2023-05-21T13:16:23.946Z,25.40
2023-05-21T13:18:52.238Z,25.60
2023-05-21T13:21:24.350Z,26.20
2023-05-21T13:23:54.733Z,26.30
2023-05-21T13:26:22.841Z,26.40
2023-05-21T13:28:57.265Z,26.40
2023-05-21T13:31:26.464Z,26.40
2023-05-21T13:34:18.585Z,25.70
2023-05-21T13:36:53.898Z,25.30
2023-05-21T13:39:39.099Z,25.60
2023-05-21T13:42:25.909Z,25.50
2023-05-21T13:44:58.152Z,25.30
2023-05-21T13:47:29.959Z,25.70
2023-05-21T13:50:16.693Z,25.20
2023-05-21T13:52:46.381Z,25.20
2023-05-21T13:55:17.895Z,25.10
2023-05-21T13:57:47.474Z,25.20
2023-05-21T14:00:17.114Z,24.90
2023-05-21T14:03:00.321Z,25.40
2023-05-21T14:05:54.186Z,25.30
2023-05-21T14:14:44.285Z,26.00
2023-05-21T14:17:12.593Z,25.90
2023-05-21T14:19:43.657Z,26.10
2023-05-21T14:22:13.579Z,26.10
2023-05-21T14:24:57.694Z,25.60
2023-05-21T14:27:30.756Z,25.90
2023-05-21T14:30:00.382Z,26.00
2023-05-21T14:32:31.678Z,26.00
2023-05-21T14:35:00.142Z,25.70
2023-05-21T14:37:31.707Z,25.90
2023-05-21T14:39:59.857Z,26.30
2023-05-21T14:42:52.671Z,26.20
2023-05-21T14:45:22.907Z,25.50
2023-05-21T14:47:53.304Z,25.60
2023-05-21T14:50:21.770Z,25.70
2023-05-21T14:52:52.512Z,25.50
2023-05-21T14:55:22.892Z,25.50
2023-05-21T14:57:53.189Z,25.80
2023-05-21T15:00:43.899Z,25.70
2023-05-21T15:03:18.104Z,25.80
2023-05-21T15:05:46.414Z,25.90
2023-05-21T15:08:14.816Z,25.80
2023-05-21T15:10:43.410Z,26.10
2023-05-21T15:13:11.820Z,26.30
2023-05-21T15:16:05.145Z,26.30
2023-05-21T15:18:37.054Z,26.20
2023-05-21T15:23:33.923Z,26.30
2023-05-21T15:26:02.915Z,26.30
2023-05-21T15:28:35.552Z,26.10
2023-05-21T15:31:08.438Z,26.30
2023-05-21T15:33:38.056Z,26.10
2023-05-21T15:36:10.905Z,25.90
2023-05-21T15:38:45.048Z,25.60
2023-05-21T15:41:16.141Z,25.70
2023-05-21T15:43:47.520Z,25.70
2023-05-21T15:46:23.670Z,25.70
2023-05-21T15:48:55.184Z,25.60
2023-05-21T15:51:24.695Z,25.70
2023-05-21T15:53:54.410Z,25.90
2023-05-21T15:56:25.338Z,25.80
2023-05-21T15:58:57.224Z,25.80
2023-05-21T16:01:27.953Z,25.80
2023-05-21T16:04:09.910Z,25.90
2023-05-21T16:06:39.812Z,25.70
2023-05-21T16:09:11.126Z,25.70
2023-05-21T16:11:41.491Z,25.60
2023-05-21T16:14:12.506Z,25.90
2023-05-21T16:16:49.582Z,25.80
2023-05-21T16:19:24.986Z,25.80
2023-05-21T16:22:06.488Z,25.70
2023-05-21T16:24:37.010Z,25.70
2023-05-21T16:27:06.476Z,25.50
2023-05-21T16:29:37.542Z,25.60
2023-05-21T16:32:35.978Z,25.70
2023-05-21T16:35:06.840Z,26.00
2023-05-21T16:37:41.756Z,25.80
2023-05-21T16:40:20.541Z,25.90
2023-05-21T16:42:49.559Z,25.90
2023-05-21T16:45:20.656Z,25.90
2023-05-21T16:47:51.826Z,26.00
2023-05-21T16:50:32.558Z,26.20
2023-05-21T16:53:02.583Z,25.90
2023-05-21T16:55:31.160Z,26.00
2023-05-21T16:57:59.583Z,25.70
2023-05-21T17:00:27.803Z,25.70
2023-05-21T17:03:00.058Z,25.60
2023-05-21T17:05:32.368Z,25.60
2023-05-21T17:08:01.024Z,25.50
2023-05-21T17:10:33.644Z,25.30
2023-05-21T17:13:20.822Z,25.40
2023-05-21T17:15:52.808Z,25.40
2023-05-21T17:18:26.435Z,25.40
2023-05-21T17:20:58.942Z,25.30
2023-05-21T17:23:33.819Z,25.20
2023-05-21T17:26:03.247Z,25.20
2023-05-21T17:28:32.411Z,25.10
2023-05-21T17:31:02.238Z,25.10
2023-05-21T17:33:36.518Z,25.00
2023-05-21T17:39:22.208Z,24.80
2023-05-21T17:41:58.450Z,24.80
2023-05-21T17:44:26.766Z,24.70
2023-05-21T17:47:01.355Z,24.70
2023-05-21T17:49:33.019Z,24.70
2023-05-21T17:52:05.906Z,24.60
2023-05-21T17:54:34.760Z,24.50
2023-05-21T17:57:02.918Z,24.50
2023-05-21T17:59:31.042Z,24.40
2023-05-21T18:02:01.552Z,24.40
2023-05-21T18:04:33.984Z,24.30
2023-05-21T18:07:07.689Z,24.20
2023-05-21T18:09:39.065Z,24.20
2023-05-21T18:12:09.430Z,24.20
2023-05-21T18:14:37.661Z,24.10
2023-05-21T18:17:06.253Z,24.00
2023-05-21T18:19:38.738Z,24.00
2023-05-21T18:22:10.264Z,23.90
2023-05-21T18:24:39.748Z,23.80
2023-05-21T18:27:08.785Z,23.70
2023-05-21T18:29:37.860Z,23.70
2023-05-21T18:32:06.858Z,23.60
2023-05-21T18:34:37.825Z,23.50
2023-05-21T18:37:12.703Z,23.40
2023-05-21T18:39:43.193Z,23.40
2023-05-21T18:42:14.541Z,23.30
2023-05-21T18:44:53.490Z,23.20
2023-05-21T18:47:26.376Z,23.20
2023-05-21T18:49:55.920Z,23.10
2023-05-21T18:52:25.402Z,23.00
2023-05-21T18:54:53.698Z,23.00
2023-05-21T18:57:21.884Z,22.90
2023-05-21T18:59:50.041Z,22.90
2023-05-21T19:02:18.629Z,22.90
2023-05-21T19:04:50.687Z,22.90
2023-05-21T19:07:20.373Z,22.80
2023-05-21T19:09:49.455Z,22.80
2023-05-21T19:12:17.691Z,22.90
2023-05-21T19:14:46.177Z,22.90
2023-05-21T19:17:16.816Z,22.90
2023-05-21T19:19:45.157Z,22.80
2023-05-21T19:22:13.921Z,22.80
2023-05-21T19:24:47.450Z,22.50
2023-05-21T19:27:16.312Z,22.10
2023-05-21T19:29:44.640Z,21.90
2023-05-21T19:32:13.719Z,21.80
2023-05-21T19:34:43.964Z,21.80
2023-05-21T19:37:12.164Z,21.80
2023-05-21T19:39:41.294Z,21.80
2023-05-21T19:42:11.670Z,21.60
2023-05-21T19:45:36.116Z,21.60
2023-05-21T19:48:09.317Z,21.60
2023-05-21T19:50:43.765Z,21.50
2023-05-21T19:53:15.552Z,21.50
2023-05-21T19:55:44.619Z,21.40
2023-05-21T19:58:16.762Z,21.40
2023-05-21T20:00:54.254Z,21.30
2023-05-21T20:03:26.729Z,21.30
2023-05-21T20:05:57.276Z,21.20
2023-05-21T20:08:33.446Z,21.10
2023-05-21T20:11:05.108Z,21.10
2023-05-21T20:13:43.894Z,21.00
2023-05-21T20:16:15.964Z,21.00
2023-05-21T20:18:48.293Z,21.00
2023-05-21T20:21:18.088Z,21.10
2023-05-21T20:23:51.386Z,21.10
2023-05-21T20:26:22.163Z,21.10
2023-05-21T20:28:59.660Z,21.20
2023-05-21T20:31:30.397Z,21.10
2023-05-21T20:34:09.621Z,21.10
2023-05-21T20:37:00.015Z,21.10
2023-05-21T20:39:58.138Z,21.10
2023-05-21T20:42:36.359Z,21.40
2023-05-21T20:45:11.213Z,21.30
2023-05-21T20:47:45.919Z,21.20
2023-05-21T20:50:20.392Z,21.10
2023-05-21T20:52:55.632Z,21.10
2023-05-21T20:55:25.197Z,20.90
2023-05-21T20:57:56.812Z,20.80
2023-05-21T21:00:30.181Z,20.30
2023-05-21T21:06:06.690Z,19.90
2023-05-21T21:08:37.876Z,19.90
2023-05-21T21:11:06.409Z,20.10
2023-05-21T21:13:44.363Z,20.10
2023-05-21T21:16:16.698Z,20.00
2023-05-21T21:18:48.552Z,16.90
2023-05-21T21:21:19.082Z,18.20
2023-05-21T21:23:47.639Z,18.80
2023-05-21T21:26:20.811Z,19.20
2023-05-21T21:28:50.537Z,19.50
2023-05-21T21:31:22.751Z,19.80
2023-05-21T21:33:53.402Z,20.10
2023-05-21T21:36:21.818Z,20.30
2023-05-21T21:38:51.439Z,20.10
2023-05-21T21:41:21.983Z,20.00
2023-05-21T21:43:51.818Z,20.10
2023-05-21T21:46:21.527Z,20.10
2023-05-21T21:48:51.842Z,20.10
2023-05-21T21:51:23.620Z,20.10
2023-05-21T21:53:52.154Z,20.00
2023-05-21T21:56:22.128Z,20.00
2023-05-21T21:58:52.580Z,19.90
2023-05-21T22:01:26.562Z,19.80
2023-05-21T22:03:58.648Z,19.70
2023-05-21T22:06:31.923Z,19.40
2023-05-21T22:09:01.725Z,19.30
2023-05-21T22:11:31.254Z,19.30
2023-05-21T22:14:02.860Z,19.10
2023-05-21T22:16:36.683Z,19.00
2023-05-21T22:19:04.930Z,18.90
2023-05-21T22:22:36.828Z,18.80
2023-05-21T22:25:09.687Z,18.70
2023-05-21T22:27:40.835Z,18.60
2023-05-21T22:30:11.499Z,18.50
2023-05-21T22:32:42.139Z,18.40
2023-05-21T22:35:18.112Z,18.30
2023-05-21T22:37:47.112Z,18.20
2023-05-21T22:40:16.578Z,18.00
2023-05-21T22:42:47.380Z,17.90
2023-05-21T22:45:24.704Z,17.90
2023-05-21T22:48:10.770Z,17.80
2023-05-21T22:50:40.909Z,17.80
2023-05-21T22:53:12.187Z,17.70
2023-05-21T22:55:41.055Z,17.70
2023-05-21T22:58:15.252Z,17.70
2023-05-21T23:00:44.767Z,17.60
2023-05-21T23:03:16.520Z,17.60
2023-05-21T23:05:47.588Z,17.50
2023-05-21T23:08:21.015Z,17.40
2023-05-21T23:10:52.558Z,17.40
2023-05-21T23:13:25.435Z,17.40
2023-05-21T23:15:53.900Z,17.50
2023-05-21T23:18:34.382Z,17.40
2023-05-21T23:21:05.634Z,17.30
2023-05-21T23:23:34.411Z,17.30
2023-05-21T23:26:06.076Z,17.20
2023-05-21T23:28:40.903Z,17.10
2023-05-21T23:31:12.941Z,17.10
2023-05-21T23:33:44.749Z,17.00
2023-05-21T23:36:14.472Z,17.00
2023-05-21T23:38:46.537Z,17.00
2023-05-21T23:41:16.486Z,16.90
2023-05-21T23:43:51.083Z,16.90
2023-05-21T23:46:24.953Z,16.90
2023-05-21T23:48:56.941Z,16.80
2023-05-21T23:51:27.896Z,16.80
2023-05-21T23:53:57.322Z,16.80
2023-05-21T23:56:26.589Z,16.80
2023-05-21T23:58:56.094Z,16.80
